Time;durP1;ratioP1;P1;durP2;ratioP2;P2;SDS_P1;SDS_P2;PMS_P1;PMS_P2;Temp;Humidity;BMP_temperature;BMP_pressure;BME280_temperature;BME280_humidity;BME280_pressure;Samples;Min_cycle;Max_cycle;Signal;HPM_P1;HPM_P2
2024/04/18 00:00:38;;;;;;;;;2.50;2.00;;;;;8.64;56.27;101310.47;5344250;26;44405;-77
2024/04/18 00:03:03;;;;;;;;;5.25;2.00;;;;;8.66;56.23;101313.78;5328719;26;55282;-76
2024/04/18 00:05:29;;;;;;;;;6.50;3.50;;;;;8.80;56.89;101333.53;5328662;26;44137;-78
2024/04/18 00:07:54;;;;;;;;;7.00;5.25;;;;;8.64;56.51;101311.28;5329383;26;62150;-77
2024/04/18 00:10:20;;;;;;;;;2.50;2.50;;;;;8.64;56.27;101297.25;5338596;26;52071;-78
2024/04/18 00:12:45;;;;;;;;;2.00;2.00;;;;;8.56;56.59;101298.03;5327534;26;54577;-78
2024/04/18 00:15:10;;;;;;;;;3.75;2.00;;;;;8.68;56.57;101319.75;5328361;26;62293;-77
2024/04/18 00:17:36;;;;;;;;;3.25;2.50;;;;;8.64;56.78;101310.47;5332559;26;43870;-77
2024/04/18 00:20:05;;;;;;;;;3.00;2.00;;;;;8.76;56.07;101346.22;5331191;26;43585;-78
2024/04/18 00:22:30;;;;;;;;;5.00;3.00;;;;;8.57;56.61;101308.47;5335273;26;44256;-78
2024/04/18 00:24:56;;;;;;;;;2.25;1.00;;;;;8.64;56.56;101313.94;5326297;26;43641;-78
2024/04/18 00:27:21;;;;;;;;;2.75;2.00;;;;;8.68;56.67;101320.56;5333007;26;43638;-78
2024/04/18 00:29:47;;;;;;;;;2.50;2.00;;;;;8.65;56.79;101317.41;5325483;26;47787;-78
2024/04/18 00:32:15;;;;;;;;;3.00;2.00;;;;;8.56;56.21;101312.09;5328877;26;43960;-78
2024/04/18 00:34:41;;;;;;;;;1.00;1.00;;;;;8.66;56.84;101327.81;5328731;26;45205;-79
2024/04/18 00:37:06;;;;;;;;;3.00;2.00;;;;;8.51;56.58;101309.09;5326140;26;43760;-77
2024/04/18 00:39:32;;;;;;;;;2.75;1.00;;;;;8.49;56.09;101319.00;5340481;26;44553;-78
2024/04/18 00:41:58;;;;;;;;;3.00;2.00;;;;;8.56;56.54;101343.81;5295581;26;43649;-80
2024/04/18 00:44:23;;;;;;;;;1.00;1.00;;;;;8.48;56.87;101356.09;5306071;26;43782;-78
2024/04/18 00:46:49;;;;;;;;;2.75;2.25;;;;;8.48;57.04;101366.69;5319370;26;50777;-77
2024/04/18 00:49:15;;;;;;;;;1.00;1.00;;;;;8.46;57.04;101369.50;5327153;26;52956;-79
2024/04/18 00:51:41;;;;;;;;;6.25;2.00;;;;;8.46;57.89;101374.78;5335329;26;44191;-77
2024/04/18 00:54:06;;;;;;;;;2.75;1.50;;;;;8.55;58.52;101391.53;5306863;26;43771;-78
2024/04/18 00:56:31;;;;;;;;;6.50;3.50;;;;;8.45;58.60;101387.16;5298963;26;54271;-79
2024/04/18 00:58:57;;;;;;;;;11.50;5.00;;;;;8.42;59.17;101391.94;5300245;26;57434;-78
2024/04/18 01:01:25;;;;;;;;;7.00;6.25;;;;;8.35;59.12;101380.31;5326230;26;58299;-77
2024/04/18 01:03:50;;;;;;;;;5.00;5.00;;;;;8.28;60.02;101388.00;5269513;26;43622;-76
2024/04/18 01:06:16;;;;;;;;;6.75;5.00;;;;;8.09;60.76;101374.00;5324420;26;54808;-77
2024/04/18 01:08:41;;;;;;;;;6.00;5.75;;;;;8.02;60.59;101351.81;5325237;26;56433;-76
2024/04/18 01:11:07;;;;;;;;;7.00;6.50;;;;;8.15;61.00;101354.06;5296099;26;44018;-75
2024/04/18 01:13:36;;;;;;;;;8.25;6.00;;;;;7.99;61.45;101334.47;5323708;26;44067;-75
2024/04/18 01:16:03;;;;;;;;;8.00;5.00;;;;;7.92;61.48;101337.84;5321790;26;43613;-76
2024/04/18 01:18:29;;;;;;;;;9.00;7.00;;;;;8.10;61.58;101361.59;5324594;26;43836;-76
2024/04/18 01:20:55;;;;;;;;;4.50;3.00;;;;;7.95;61.22;101341.03;5298604;26;43733;-76
2024/04/18 01:23:20;;;;;;;;;5.25;5.25;;;;;7.85;61.09;101333.19;5345674;26;43695;-77
2024/04/18 01:25:45;;;;;;;;;3.00;3.00;;;;;7.93;61.95;101337.72;5340676;26;43636;-76
2024/04/18 01:28:11;;;;;;;;;6.00;5.00;;;;;7.97;61.68;101347.00;5331090;26;66328;-76
2024/04/18 01:30:36;;;;;;;;;3.50;3.50;;;;;7.95;62.21;101342.81;5336448;26;46948;-76
2024/04/18 01:33:02;;;;;;;;;5.25;5.00;;;;;7.92;61.27;101351.91;5331346;26;43534;-76
2024/04/18 01:35:27;;;;;;;;;4.50;3.00;;;;;8.04;61.70;101368.34;5327462;26;43776;-77
2024/04/18 01:37:53;;;;;;;;;6.00;3.50;;;;;7.92;61.58;101358.97;5327491;26;67544;-76
2024/04/18 01:40:18;;;;;;;;;5.00;5.00;;;;;7.88;62.04;101339.97;5328235;26;43504;-76
2024/04/18 01:42:43;;;;;;;;;5.00;5.00;;;;;7.87;61.85;101347.06;5300565;26;56080;-76
2024/04/18 01:45:09;;;;;;;;;7.00;4.00;;;;;8.00;62.28;101359.88;5337250;26;64343;-76
2024/04/18 01:47:34;;;;;;;;;6.00;5.00;;;;;7.94;62.11;101352.56;5300391;26;44399;-76
2024/04/18 01:50:00;;;;;;;;;3.50;2.25;;;;;7.84;61.56;101343.91;5300960;26;43597;-77
2024/04/18 01:52:25;;;;;;;;;4.00;4.00;;;;;7.98;62.57;101364.50;5324393;26;50410;-76
2024/04/18 01:54:50;;;;;;;;;10.00;5.50;;;;;7.81;62.27;101338.94;5333821;26;57948;-77
2024/04/18 01:57:16;;;;;;;;;7.50;3.00;;;;;7.86;61.75;101360.41;5328734;26;44047;-77
2024/04/18 01:59:42;;;;;;;;;4.00;3.00;;;;;7.84;61.71;101350.00;5334940;26;43865;-77
2024/04/18 02:02:07;;;;;;;;;5.25;2.00;;;;;7.95;61.92;101372.72;5328611;26;43462;-77
2024/04/18 02:04:33;;;;;;;;;5.00;2.75;;;;;7.96;62.08;101384.13;5327220;26;43684;-77
2024/04/18 02:06:58;;;;;;;;;2.25;2.25;;;;;7.78;62.16;101361.16;5331308;26;53665;-77
2024/04/18 02:09:24;;;;;;;;;2.00;2.00;;;;;7.84;62.22;101368.47;5313632;26;44088;-76
2024/04/18 02:11:49;;;;;;;;;5.00;5.00;;;;;7.78;61.61;101363.00;5321773;26;48006;-76
2024/04/18 02:14:15;;;;;;;;;1.50;1.50;;;;;7.80;61.84;101364.47;5317560;26;56293;-76
2024/04/18 02:16:41;;;;;;;;;4.00;2.00;;;;;7.80;62.34;101361.03;5325557;26;44032;-77
2024/04/18 02:19:06;;;;;;;;;3.00;2.00;;;;;7.83;61.88;101376.56;5319766;26;44114;-77
2024/04/18 02:21:32;;;;;;;;;5.75;2.50;;;;;7.74;62.20;101367.72;5283214;26;52451;-78
2024/04/18 02:23:57;;;;;;;;;2.25;2.25;;;;;7.86;63.04;101385.00;5312144;26;60619;-77
2024/04/18 02:26:23;;;;;;;;;2.75;2.00;;;;;7.74;62.92;101380.94;5329055;26;44326;-77
2024/04/18 02:28:48;;;;;;;;;3.00;2.50;;;;;7.74;62.18;101386.22;5320176;26;51647;-78
2024/04/18 02:31:13;;;;;;;;;6.25;5.25;;;;;7.68;61.80;101377.09;5313307;26;58560;-77
2024/04/18 02:33:39;;;;;;;;;5.50;4.50;;;;;7.70;62.02;101392.75;5313680;26;46622;-77
2024/04/18 02:36:04;;;;;;;;;5.00;5.00;;;;;7.81;62.40;101426.88;5313321;26;45060;-76
2024/04/18 02:38:30;;;;;;;;;7.00;6.00;;;;;7.63;62.17;101407.53;5313511;26;44475;-76
2024/04/18 02:41:05;;;;;;;;;5.00;5.00;;;;;7.73;62.58;101432.06;5313442;26;44143;-77
2024/04/18 02:43:31;;;;;;;;;6.00;5.00;;;;;7.75;62.66;101443.31;5313638;26;44024;-76
2024/04/18 02:45:56;;;;;;;;;5.50;5.50;;;;;7.70;63.35;101440.28;5313389;26;44268;-77
2024/04/18 02:48:21;;;;;;;;;8.50;7.00;;;;;7.50;62.89;101414.00;5313144;26;59467;-76
2024/04/18 02:50:47;;;;;;;;;7.50;5.25;;;;;7.60;62.92;101432.44;5302869;26;52473;-76
2024/04/18 02:53:12;;;;;;;;;9.50;6.25;;;;;7.38;62.65;101396.72;5315480;26;45145;-76
2024/04/18 02:55:38;;;;;;;;;6.75;5.75;;;;;7.33;62.72;101385.78;5313929;26;44711;-76
2024/04/18 02:58:03;;;;;;;;;5.00;5.00;;;;;7.41;63.38;101405.16;5315581;26;51642;-77
2024/04/18 03:00:29;;;;;;;;;6.50;5.00;;;;;7.38;63.42;101394.06;5314330;26;65455;-78
2024/04/18 03:02:54;;;;;;;;;6.00;6.00;;;;;7.35;62.77;101400.47;5316891;26;67066;-76
2024/04/18 03:05:19;;;;;;;;;2.75;2.75;;;;;7.31;63.05;101396.47;5313931;26;64154;-76
2024/04/18 03:07:45;;;;;;;;;3.50;2.75;;;;;7.28;62.78;101404.66;5314790;26;43928;-77
2024/04/18 03:10:10;;;;;;;;;4.25;2.25;;;;;7.23;63.14;101405.13;5319840;26;44095;-76
2024/04/18 03:12:36;;;;;;;;;4.50;3.00;;;;;7.09;62.89;101390.59;5287519;26;44419;-76
2024/04/18 03:15:03;;;;;;;;;6.25;4.00;;;;;7.20;62.76;101412.47;5321433;26;44418;-76
2024/04/18 03:17:28;;;;;;;;;6.75;5.00;;;;;7.15;62.32;101410.25;5318052;26;44032;-76
2024/04/18 03:19:53;;;;;;;;;4.50;4.50;;;;;7.06;62.59;101405.88;5286804;26;44133;-76
2024/04/18 03:22:19;;;;;;;;;8.50;6.00;;;;;7.06;63.45;101414.63;5281178;26;64059;-76
2024/04/18 03:24:44;;;;;;;;;5.25;5.00;;;;;6.91;63.39;101405.53;5312386;26;63161;-76
2024/04/18 03:27:10;;;;;;;;;5.00;5.00;;;;;6.97;63.42;101421.56;5312721;26;43946;-76
2024/04/18 03:29:35;;;;;;;;;5.00;5.00;;;;;6.92;63.71;101423.00;5312068;26;60100;-76
2024/04/18 03:32:02;;;;;;;;;6.00;4.75;;;;;6.98;64.39;101430.31;5277448;26;63139;-78
2024/04/18 03:34:27;;;;;;;;;5.50;5.00;;;;;6.81;63.65;101414.25;5313110;26;44963;-77
2024/04/18 03:36:53;;;;;;;;;7.25;3.25;;;;;6.79;63.13;101407.47;5313314;26;55834;-76
2024/04/18 03:39:19;;;;;;;;;4.75;2.75;;;;;6.99;63.35;101442.53;5314043;26;44278;-76
2024/04/18 03:41:47;;;;;;;;;4.00;4.00;;;;;6.80;63.68;101417.88;5313521;26;44203;-76
2024/04/18 03:44:13;;;;;;;;;5.00;3.25;;;;;6.81;63.15;101419.53;5261998;26;47038;-76
2024/04/18 03:46:38;;;;;;;;;8.50;5.00;;;;;6.74;63.76;101421.06;5311913;26;49842;-77
2024/04/18 03:49:04;;;;;;;;;8.50;5.00;;;;;6.77;64.06;101428.69;5312152;26;44125;-76
2024/04/18 03:51:30;;;;;;;;;7.25;5.00;;;;;6.89;63.47;101447.00;5318487;26;44106;-76
2024/04/18 03:53:56;;;;;;;;;6.25;5.00;;;;;6.70;64.49;101423.19;5316076;26;44331;-77
2024/04/18 03:56:21;;;;;;;;;6.25;3.25;;;;;6.76;63.69;101445.47;5321655;26;44501;-76
2024/04/18 03:58:46;;;;;;;;;4.50;3.25;;;;;6.87;63.79;101467.41;5318114;26;61781;-76
2024/04/18 04:01:13;;;;;;;;;4.25;4.25;;;;;6.84;63.76;101469.34;5323404;26;54479;-76
2024/04/18 04:03:38;;;;;;;;;4.00;4.00;;;;;6.69;64.41;101450.50;5328903;26;45493;-76
2024/04/18 04:06:04;;;;;;;;;4.25;2.00;;;;;6.83;63.56;101482.66;5289860;26;44285;-76
2024/04/18 04:08:29;;;;;;;;;5.00;2.50;;;;;6.68;64.56;101462.03;5298187;26;44002;-76
2024/04/18 04:10:55;;;;;;;;;4.50;4.00;;;;;6.78;64.12;101474.34;5318721;26;61745;-76
2024/04/18 04:13:20;;;;;;;;;5.00;5.00;;;;;6.66;64.29;101461.34;5296941;26;44458;-75
2024/04/18 04:15:49;;;;;;;;;4.00;4.00;;;;;6.65;64.81;101459.66;5325622;26;51059;-76
2024/04/18 04:18:15;;;;;;;;;4.00;3.25;;;;;6.67;64.37;101468.25;5331947;26;44162;-76
2024/04/18 04:20:43;;;;;;;;;7.00;5.00;;;;;6.77;64.86;101486.69;5318558;26;43931;-76
2024/04/18 04:23:09;;;;;;;;;4.00;4.00;;;;;6.63;64.59;101474.78;5311979;26;43988;-76
2024/04/18 04:25:34;;;;;;;;;5.75;5.75;;;;;6.75;64.69;101495.72;5280610;26;44358;-77
2024/04/18 04:27:59;;;;;;;;;8.25;5.00;;;;;6.73;64.39;101503.75;5312591;26;56103;-77
2024/04/18 04:30:25;;;;;;;;;4.00;3.25;;;;;6.56;64.55;101481.59;5318107;26;56697;-76
2024/04/18 04:32:50;;;;;;;;;9.75;7.25;;;;;6.60;64.57;101485.59;5318833;26;57352;-76
2024/04/18 04:35:15;;;;;;;;;6.25;4.50;;;;;6.63;64.19;101493.22;5315225;26;46198;-76
2024/04/18 04:37:41;;;;;;;;;7.75;5.50;;;;;6.66;65.37;101498.22;5327333;26;59330;-76
2024/04/18 04:40:06;;;;;;;;;5.50;5.00;;;;;6.60;64.19;101506.69;5323363;26;60010;-76
2024/04/18 04:42:33;;;;;;;;;7.00;7.00;;;;;6.57;64.60;101506.97;5324287;26;44436;-76
2024/04/18 04:44:58;;;;;;;;;9.25;5.00;;;;;6.59;65.39;101520.00;5333712;26;44115;-76
2024/04/18 04:47:24;;;;;;;;;8.25;6.00;;;;;6.59;65.22;101530.53;5324077;26;44332;-76
2024/04/18 04:49:49;;;;;;;;;12.00;6.00;;;;;6.59;65.58;101533.16;5327086;26;59024;-76
2024/04/18 04:52:15;;;;;;;;;8.50;6.00;;;;;6.53;64.88;101530.13;5311400;26;70081;-76
2024/04/18 04:54:43;;;;;;;;;11.00;6.00;;;;;6.48;64.79;101524.44;5317662;26;44453;-76
2024/04/18 04:57:09;;;;;;;;;12.00;6.00;;;;;6.52;64.81;101539.00;5298312;26;43950;-76
2024/04/18 04:59:35;;;;;;;;;6.50;6.50;;;;;6.41;65.48;101529.41;5285378;26;44304;-76
2024/04/18 05:02:01;;;;;;;;;9.50;6.00;;;;;6.54;64.48;101558.13;5312988;26;44858;-77
2024/04/18 05:04:26;;;;;;;;;8.00;8.00;;;;;6.49;65.70;101546.34;5316567;26;52158;-77
2024/04/18 05:06:51;;;;;;;;;7.25;7.25;;;;;6.62;64.84;101580.31;5294867;26;50100;-76
2024/04/18 05:09:17;;;;;;;;;10.00;8.25;;;;;6.65;65.08;101585.31;5279787;26;67743;-76
2024/04/18 05:11:42;;;;;;;;;5.75;5.75;;;;;6.52;65.82;101569.78;5322560;26;44760;-77
2024/04/18 05:14:07;;;;;;;;;11.75;9.50;;;;;6.52;65.47;101572.41;5311262;26;58717;-77
2024/04/18 05:16:33;;;;;;;;;8.25;8.25;;;;;6.53;64.94;101572.25;5294670;26;53286;-77
2024/04/18 05:18:58;;;;;;;;;9.00;8.00;;;;;6.73;64.33;101601.25;5323718;26;61289;-76
2024/04/18 05:21:23;;;;;;;;;6.00;6.00;;;;;6.71;64.22;101603.19;5315273;26;67780;-77
2024/04/18 05:23:49;;;;;;;;;9.25;8.00;;;;;6.73;64.93;101601.25;5323881;26;67098;-77
2024/04/18 05:26:14;;;;;;;;;8.25;6.50;;;;;6.69;65.11;101605.16;5316666;26;48449;-77
2024/04/18 05:31:00;;;;;;;;;13.00;8.50;;;;;6.71;65.39;101611.09;5322935;26;63501;-77
2024/04/18 05:31:28;;;;;;;;;13.50;9.75;;;;;6.78;64.81;101616.69;5280533;26;44031;-77
2024/04/18 05:33:54;;;;;;;;;8.75;8.25;;;;;6.80;64.74;101620.00;5284484;26;44172;-77
2024/04/18 05:36:19;;;;;;;;;8.00;8.00;;;;;6.81;64.87;101626.94;5302327;26;44154;-77
2024/04/18 05:38:45;;;;;;;;;9.00;6.25;;;;;6.84;64.23;101624.03;5325724;26;44133;-76
2024/04/18 05:41:10;;;;;;;;;9.25;6.25;;;;;6.86;64.26;101630.00;5334530;26;65899;-76
2024/04/18 05:43:35;;;;;;;;;9.75;8.00;;;;;6.74;64.50;101610.84;5337029;26;55593;-78
2024/04/18 05:46:01;;;;;;;;;7.25;5.75;;;;;6.89;64.56;101640.25;5279827;26;51977;-78
2024/04/18 05:48:26;;;;;;;;;9.75;7.75;;;;;6.89;64.06;101647.34;5311689;26;44005;-76
2024/04/18 05:50:52;;;;;;;;;11.00;9.00;;;;;6.89;65.25;101653.44;5309762;26;43960;-77
2024/04/18 05:53:17;;;;;;;;;9.25;5.50;;;;;6.79;64.48;101642.06;5312447;26;44136;-77
2024/04/18 05:55:43;;;;;;;;;10.75;9.00;;;;;6.79;65.04;101652.59;5310401;26;44350;-77
2024/04/18 05:58:09;;;;;;;;;10.00;8.50;;;;;6.78;64.81;101648.31;5311361;26;44043;-79
2024/04/18 06:00:34;;;;;;;;;9.50;9.00;;;;;6.79;64.85;101652.59;5311544;26;45117;-78
2024/04/18 06:03:00;;;;;;;;;9.25;7.00;;;;;6.84;64.85;101653.03;5315187;26;43959;-77
2024/04/18 06:05:25;;;;;;;;;8.00;8.00;;;;;6.95;64.75;101673.97;5270438;27;52367;-77
2024/04/18 06:07:52;;;;;;;;;9.25;7.00;;;;;7.04;65.51;101684.69;5302922;26;62995;-78
2024/04/18 06:10:17;;;;;;;;;9.25;8.50;;;;;6.95;65.23;101666.06;5280528;26;46103;-76
2024/04/18 06:12:43;;;;;;;;;13.75;9.00;;;;;6.97;65.50;101671.22;5312315;26;43961;-76
2024/04/18 06:15:08;;;;;;;;;10.00;10.00;;;;;6.98;64.90;101667.63;5317886;26;45508;-79
2024/04/18 06:17:33;;;;;;;;;11.50;6.75;;;;;7.13;64.26;101684.69;5317371;26;62645;-77
2024/04/18 06:19:59;;;;;;;;;10.25;6.50;;;;;7.18;63.93;101686.91;5318104;26;44008;-79
2024/04/18 06:22:24;;;;;;;;;10.50;8.00;;;;;7.23;64.82;101689.97;5314732;26;46239;-76
2024/04/18 06:24:50;;;;;;;;;7.00;7.00;;;;;7.28;64.47;101689.53;5312701;26;50001;-78
2024/04/18 06:27:16;;;;;;;;;13.00;9.00;;;;;7.27;63.99;101690.53;5314049;26;44068;-78
2024/04/18 06:29:41;;;;;;;;;12.50;8.25;;;;;7.33;64.67;101704.97;5285432;26;45103;-78
2024/04/18 06:32:07;;;;;;;;;11.00;9.75;;;;;7.36;63.73;101712.59;5315481;26;44306;-80
2024/04/18 06:34:32;;;;;;;;;12.75;9.00;;;;;7.36;64.73;101716.06;5324032;26;44143;-73
2024/04/18 06:36:57;;;;;;;;;11.25;6.00;;;;;7.40;65.21;101722.72;5315574;26;65306;-72
2024/04/18 06:39:23;;;;;;;;;35.25;33.50;;;;;7.46;64.43;101728.41;5331757;26;44571;-72
2024/04/18 06:41:48;;;;;;;;;164.75;141.50;;;;;7.52;65.46;101733.13;5328675;26;66133;-72
2024/04/18 06:44:14;;;;;;;;;16.25;14.50;;;;;7.57;64.44;101726.47;5326346;26;53672;-72
2024/04/18 06:46:39;;;;;;;;;12.00;7.25;;;;;7.65;64.09;101733.72;5267213;26;44430;-72
2024/04/18 06:49:05;;;;;;;;;8.50;8.50;;;;;7.72;64.21;101741.88;5311076;26;44612;-72
2024/04/18 06:51:31;;;;;;;;;10.50;6.75;;;;;7.70;64.46;101728.84;5315116;26;45513;-72
2024/04/18 06:53:56;;;;;;;;;8.50;5.00;;;;;7.88;64.03;101743.94;5313660;26;44365;-70
2024/04/18 06:56:21;;;;;;;;;8.00;5.25;;;;;7.95;64.39;101752.97;5333146;26;69400;-72
2024/04/18 06:58:47;;;;;;;;;6.75;5.00;;;;;8.01;63.76;101754.22;5313745;26;64457;-71
2024/04/18 07:01:12;;;;;;;;;8.00;8.00;;;;;8.06;64.05;101756.41;5314503;26;44076;-71
2024/04/18 07:03:38;;;;;;;;;10.00;7.00;;;;;8.07;63.28;101752.78;5243340;27;44507;-71
2024/04/18 07:06:03;;;;;;;;;9.75;7.00;;;;;8.20;63.81;101773.63;5302109;26;64448;-72
2024/04/18 07:08:29;;;;;;;;;8.25;7.75;;;;;8.24;63.47;101762.63;5312702;26;56478;-70
2024/04/18 07:10:54;;;;;;;;;10.00;8.00;;;;;8.34;63.66;101770.53;5214331;27;44511;-70
2024/04/18 07:13:20;;;;;;;;;9.25;6.25;;;;;8.38;63.33;101771.09;5307496;26;44178;-71
2024/04/18 07:15:45;;;;;;;;;8.75;7.00;;;;;8.50;63.47;101779.69;5308626;26;44083;-72
2024/04/18 07:18:10;;;;;;;;;8.75;6.00;;;;;8.58;62.83;101772.69;5315090;26;68318;-72
2024/04/18 07:20:36;;;;;;;;;13.50;9.50;;;;;8.66;63.28;101776.41;5313627;26;64789;-71
2024/04/18 07:23:01;;;;;;;;;7.00;7.00;;;;;8.71;62.51;101780.31;5309802;26;64886;-72
2024/04/18 07:25:26;;;;;;;;;10.00;7.25;;;;;8.72;62.17;101781.97;5280117;26;65343;-71
2024/04/18 07:27:52;;;;;;;;;10.25;7.50;;;;;8.74;62.03;101777.38;5278688;26;62393;-72
2024/04/18 07:30:17;;;;;;;;;10.50;7.00;;;;;8.81;62.26;101782.06;5310120;26;44070;-72
2024/04/18 07:32:43;;;;;;;;;9.75;7.00;;;;;8.86;62.14;101791.19;5313241;26;43969;-72
2024/04/18 07:35:11;;;;;;;;;8.25;8.25;;;;;8.88;62.63;101791.06;5312459;26;44185;-71
2024/04/18 07:37:37;;;;;;;;;10.75;8.75;;;;;8.93;61.72;101794.09;5281026;26;45800;-72
2024/04/18 07:40:11;;;;;;;;;9.50;7.00;;;;;8.95;61.43;101805.38;5279320;26;44575;-71
2024/04/18 07:42:36;;;;;;;;;7.25;7.00;;;;;9.02;62.09;101808.25;5316421;26;44763;-72
2024/04/18 07:45:01;;;;;;;;;11.00;7.50;;;;;9.09;61.71;101816.44;5314540;26;68511;-72
2024/04/18 07:47:27;;;;;;;;;10.00;7.00;;;;;9.07;60.71;101805.16;5322820;26;44160;-71
2024/04/18 07:49:52;;;;;;;;;10.75;6.50;;;;;9.15;61.46;101819.31;5315261;26;63914;-71
2024/04/18 07:52:18;;;;;;;;;6.75;5.75;;;;;9.17;61.28;101819.16;5323987;26;64431;-72
2024/04/18 07:54:44;;;;;;;;;6.50;5.50;;;;;9.19;60.91;101822.50;5317347;26;68305;-72
2024/04/18 07:57:09;;;;;;;;;16.75;9.25;;;;;9.28;60.78;101831.38;5314424;26;44324;-72
2024/04/18 07:59:34;;;;;;;;;10.50;7.50;;;;;9.33;61.40;101829.91;5310172;26;44016;-72
2024/04/18 08:02:00;;;;;;;;;10.75;8.00;;;;;9.53;60.63;101831.59;5311327;26;62367;-72
2024/04/18 08:04:26;;;;;;;;;6.00;6.00;;;;;9.67;60.05;101830.25;5280840;26;58114;-72
2024/04/18 08:06:52;;;;;;;;;12.50;8.75;;;;;9.84;60.35;101845.31;5226683;26;46250;-72
2024/04/18 08:09:18;;;;;;;;;11.25;9.00;;;;;9.94;59.51;101836.44;5312305;26;44026;-72
2024/04/18 08:11:43;;;;;;;;;12.50;12.25;;;;;10.06;59.79;101838.69;5259571;26;44092;-72
2024/04/18 08:14:08;;;;;;;;;17.00;13.00;;;;;10.20;59.66;101852.38;5312809;26;59934;-72
2024/04/18 08:16:34;;;;;;;;;10.50;10.50;;;;;10.31;59.31;101849.47;5313037;26;65610;-71
2024/04/18 08:18:59;;;;;;;;;11.25;8.75;;;;;10.42;58.77;101850.22;5308022;26;66277;-72
2024/04/18 08:21:27;;;;;;;;;8.75;8.00;;;;;10.49;58.70;101856.56;5306237;26;44244;-72
2024/04/18 08:23:52;;;;;;;;;9.00;8.00;;;;;10.49;58.72;101862.72;5241085;26;44105;-72
2024/04/18 08:26:17;;;;;;;;;7.25;7.25;;;;;10.45;57.80;101868.47;5313065;26;44901;-72
2024/04/18 08:28:43;;;;;;;;;8.00;6.50;;;;;10.35;57.66;101860.59;5312948;26;64459;-73
2024/04/18 08:31:09;;;;;;;;;8.00;4.75;;;;;10.35;57.37;101874.69;5317379;26;44084;-71
2024/04/18 08:33:35;;;;;;;;;7.75;7.75;;;;;10.28;57.73;101878.94;5312947;26;44031;-72
2024/04/18 08:36:00;;;;;;;;;8.50;7.00;;;;;10.29;58.06;101885.09;5252617;26;46566;-71
2024/04/18 08:38:25;;;;;;;;;11.50;8.50;;;;;10.11;58.00;101858.59;5313400;26;44134;-72
2024/04/18 08:40:51;;;;;;;;;8.00;7.25;;;;;10.28;57.45;101880.78;5314217;26;44402;-72
2024/04/18 08:43:16;;;;;;;;;8.00;8.00;;;;;10.26;57.74;101888.03;5312355;26;57368;-72
2024/04/18 08:45:42;;;;;;;;;11.25;6.00;;;;;10.26;58.06;101890.69;5311560;26;66331;-72
2024/04/18 08:48:08;;;;;;;;;10.25;6.50;;;;;10.27;57.32;101895.81;5287878;26;44036;-72
2024/04/18 08:50:33;;;;;;;;;8.00;7.00;;;;;10.34;56.96;101896.06;5327727;26;59694;-72
2024/04/18 08:52:58;;;;;;;;;8.50;8.00;;;;;10.47;57.32;101900.97;5318346;26;44133;-72
2024/04/18 08:55:24;;;;;;;;;9.00;8.50;;;;;10.64;57.66;101897.47;5302549;26;68658;-72
2024/04/18 08:57:50;;;;;;;;;8.00;7.50;;;;;10.88;57.46;101898.56;5318155;26;48966;-72
2024/04/18 09:00:15;;;;;;;;;8.00;7.75;;;;;11.07;56.47;101897.50;5237376;26;44132;-72
2024/04/18 09:02:41;;;;;;;;;7.75;6.25;;;;;11.19;55.92;101902.53;5284819;26;44239;-72
2024/04/18 09:05:07;;;;;;;;;9.00;7.00;;;;;11.26;55.41;101895.59;5285932;26;68495;-72
2024/04/18 09:07:32;;;;;;;;;7.50;7.25;;;;;11.37;55.93;101905.91;5256485;26;44218;-72
2024/04/18 09:10:06;;;;;;;;;7.25;6.00;;;;;11.48;55.24;101902.13;5317214;26;43975;-72
2024/04/18 09:12:31;;;;;;;;;7.00;4.00;;;;;11.73;55.67;101912.81;5255536;26;44053;-73
2024/04/18 09:14:57;;;;;;;;;6.00;4.00;;;;;11.96;55.39;101920.97;5318600;26;45830;-73
2024/04/18 09:17:23;;;;;;;;;4.00;4.00;;;;;12.13;54.90;101915.69;5304097;26;44418;-72
2024/04/18 09:19:48;;;;;;;;;6.00;5.00;;;;;12.23;53.66;101921.69;5313571;26;44033;-72
2024/04/18 09:22:14;;;;;;;;;5.50;5.00;;;;;12.42;54.95;101918.84;5309944;26;44250;-72
2024/04/18 09:24:44;;;;;;;;;6.75;4.75;;;;;12.51;53.80;101929.34;5310623;26;44924;-72
2024/04/18 09:27:13;;;;;;;;;4.00;3.50;;;;;12.54;53.46;101929.00;5307707;26;44576;-73
2024/04/18 09:29:39;;;;;;;;;5.25;5.25;;;;;12.63;53.74;101928.97;5280482;26;44105;-72
2024/04/18 09:32:05;;;;;;;;;7.00;4.25;;;;;12.60;53.16;101939.97;5278358;26;44049;-73
2024/04/18 09:34:31;;;;;;;;;3.75;3.75;;;;;12.56;52.63;101933.31;5273788;26;44475;-72
2024/04/18 09:36:57;;;;;;;;;7.00;4.75;;;;;12.55;52.32;101937.78;5310910;26;44057;-72
2024/04/18 09:39:30;;;;;;;;;5.25;5.25;;;;;12.49;52.10;101935.81;5280260;26;44051;-72
2024/04/18 09:42:30;;;;;;;;;3.00;3.00;;;;;12.41;53.30;101944.59;5249133;26;44055;-72
2024/04/18 09:44:59;;;;;;;;;4.00;4.00;;;;;12.30;52.13;101944.94;5268703;26;44099;-70
2024/04/18 09:47:24;;;;;;;;;6.00;4.00;;;;;12.20;52.76;101945.13;5255385;26;44152;-72
2024/04/18 09:49:50;;;;;;;;;4.25;4.00;;;;;12.25;53.30;101954.25;5318251;26;44124;-72
2024/04/18 09:52:15;;;;;;;;;4.00;4.00;;;;;12.29;52.52;101946.78;5277153;26;66600;-71
2024/04/18 09:54:41;;;;;;;;;7.75;7.75;;;;;12.42;52.71;101943.59;5323954;26;67722;-73
2024/04/18 09:57:07;;;;;;;;;4.75;4.75;;;;;12.47;52.44;101943.13;5257997;26;44284;-72
2024/04/18 09:59:32;;;;;;;;;5.00;5.00;;;;;12.45;51.56;101945.94;5285901;26;44364;-72
2024/04/18 10:01:59;;;;;;;;;5.25;4.00;;;;;12.41;51.80;101949.94;5272094;26;66386;-72
2024/04/18 10:04:25;;;;;;;;;6.50;4.75;;;;;12.39;52.00;101950.09;5315928;26;47253;-72
2024/04/18 10:06:52;;;;;;;;;5.00;4.75;;;;;12.51;52.08;101963.91;5261887;26;43870;-71
2024/04/18 10:09:18;;;;;;;;;7.50;4.00;;;;;12.47;51.41;101937.81;5315070;26;44372;-72
2024/04/18 10:11:44;;;;;;;;;8.50;6.75;;;;;12.65;52.12;101958.91;5323061;26;48120;-72
2024/04/18 10:14:10;;;;;;;;;9.00;6.50;;;;;12.81;51.36;101966.00;5316018;26;44012;-72
2024/04/18 10:16:47;;;;;;;;;10.50;6.75;;;;;13.06;51.73;101973.97;5323744;26;44427;-72
2024/04/18 10:19:18;;;;;;;;;4.00;4.00;;;;;13.23;50.86;101969.41;5324223;26;43998;-72
2024/04/18 10:21:58;;;;;;;;;5.50;3.00;;;;;13.34;49.85;101974.38;5311633;26;46753;-72
2024/04/18 10:24:33;;;;;;;;;4.25;3.00;;;;;13.25;49.98;101956.75;5311523;26;45283;-72
2024/04/18 10:27:00;;;;;;;;;7.00;6.25;;;;;13.32;49.73;101984.38;5269746;26;43970;-71
2024/04/18 10:29:26;;;;;;;;;9.50;9.00;;;;;13.24;49.72;101987.03;5314077;26;44148;-71
2024/04/18 10:31:56;;;;;;;;;7.00;7.00;;;;;13.10;50.15;101981.41;5317480;26;44296;-72
2024/04/18 10:34:23;;;;;;;;;7.75;6.50;;;;;13.07;49.70;101986.28;5328057;26;46044;-71
2024/04/18 10:36:49;;;;;;;;;7.00;7.00;;;;;13.06;49.44;101988.09;5288662;26;44061;-71
2024/04/18 10:39:30;;;;;;;;;8.00;8.00;;;;;13.18;49.33;101982.41;5326772;26;44102;-71
2024/04/18 10:42:01;;;;;;;;;10.75;9.75;;;;;13.28;49.50;101991.03;5315868;26;44052;-72
2024/04/18 10:44:27;;;;;;;;;9.50;7.50;;;;;13.51;49.22;101982.31;5328528;26;47095;-73
2024/04/18 10:46:54;;;;;;;;;6.25;6.25;;;;;13.76;49.76;101971.53;5254490;26;44081;-71
2024/04/18 10:49:19;;;;;;;;;5.00;5.00;;;;;14.13;48.88;101978.78;5276389;26;44361;-72
2024/04/18 10:51:45;;;;;;;;;5.25;4.50;;;;;14.43;48.14;101986.91;5311717;26;66380;-72
2024/04/18 10:54:11;;;;;;;;;3.50;3.50;;;;;14.76;47.81;101984.97;5249400;26;44194;-72
2024/04/18 10:56:36;;;;;;;;;4.75;3.50;;;;;15.04;46.71;101987.03;5314234;26;44432;-72
2024/04/18 10:59:02;;;;;;;;;3.50;3.00;;;;;15.19;46.56;101985.19;5301517;26;60661;-73
2024/04/18 11:01:31;;;;;;;;;3.25;3.25;;;;;15.20;45.86;101986.84;5279982;26;66347;-72
2024/04/18 11:03:57;;;;;;;;;4.50;3.50;;;;;15.09;44.92;101985.47;5319204;26;44139;-73
2024/04/18 11:06:22;;;;;;;;;4.00;4.00;;;;;15.01;45.00;101990.91;5307768;26;43916;-72
2024/04/18 11:08:51;;;;;;;;;4.00;4.00;;;;;14.94;46.16;101995.31;5301550;26;60020;-73
2024/04/18 11:11:18;;;;;;;;;7.25;6.25;;;;;14.84;45.59;101985.75;5307379;26;44623;-73
2024/04/18 11:13:43;;;;;;;;;9.75;9.50;;;;;14.78;45.31;101980.28;5226554;26;45670;-74
2024/04/18 11:16:11;;;;;;;;;8.75;6.25;;;;;14.70;45.37;101978.50;5253423;26;44057;-73
2024/04/18 11:18:37;;;;;;;;;10.25;9.50;;;;;14.65;46.29;101981.72;5311073;26;44419;-70
2024/04/18 11:21:03;;;;;;;;;6.00;6.00;;;;;14.81;45.79;101988.78;5314323;26;48455;-71
2024/04/18 11:23:28;;;;;;;;;7.00;4.00;;;;;14.95;45.80;101988.97;5306825;26;55291;-71